Koutalianos — A8WZ2 — position and weather

sailwx.info

Track history (hours):
 
Tides and Currents Weather Stations Pressure Air Temp Water Temp Dewpoint Dewpoint Depression Visibility Wind Speed Wind Dir Waves Ship Positions

Koutalianos

Last reported at 2018-Jan-10 12:46 UTC. Time now 2018-Jan-18 21:44 UTC.
Position N 37°14' W 076°05'.
Warning: this ship's position is 8 days out of date.

Length 230 m; draft 8.5 m.

Type: Cargo ship. MMSI: 636014865.

Date/timePositionNaut miles runAvg speedWind from/ knotsBaromVisibWave heightAir tempDewpointWater temp
2018-Jan-10 12:46N 37°14' W 076°05'0 0.0
2018-Jan-08 14:25N 37°14' W 076°05'0 0.1
2018-Jan-08 13:52N 37°14' W 076°05'0 0.0
2018-Jan-08 13:10N 37°14' W 076°05'  
2018-Jan-06 02:05N 37°55' W 076°11'210.8
2018-Jan-06 01:53N 37°57' W 076°11'4213.8
2018-Jan-05 22:50N 38°38' W 076°25'513.1
2018-Jan-05 22:27N 38°43' W 076°26'613.5
2018-Jan-05 22:00N 38°48' W 076°25'3 6.1
2018-Jan-05 21:29N 38°52' W 076°26'0 0.2
2018-Jan-05 20:59N 38°52' W 076°25'0 0.2
2018-Jan-05 20:29N 38°52' W 076°25'0 0.0
2018-Jan-05 19:59N 38°51' W 076°25'0 0.0
2018-Jan-05 19:30N 38°51' W 076°25'0 0.0
2018-Jan-05 18:59N 38°51' W 076°25'0 0.1
2018-Jan-05 18:29N 38°51' W 076°25'0 0.0
2018-Jan-05 18:00N 38°51' W 076°25'0 0.0
2018-Jan-05 17:30N 38°51' W 076°25'0 0.0
2018-Jan-05 16:59N 38°51' W 076°25'0 0.0
2018-Jan-05 16:29N 38°51' W 076°25'0 0.0
2018-Jan-05 15:59N 38°51' W 076°25'0 0.1
2018-Jan-05 15:29N 38°52' W 076°25'0 0.0
2018-Jan-05 15:00N 38°51' W 076°25'0 0.0
2018-Jan-05 14:29N 38°51' W 076°25'0 0.1
2018-Jan-05 13:59N 38°52' W 076°25'0 0.0
2018-Jan-05 13:29N 38°52' W 076°25'0 0.1
2018-Jan-05 12:59N 38°52' W 076°25'0 0.0
2018-Jan-05 12:29N 38°52' W 076°25'0 0.0
2018-Jan-05 12:00N 38°52' W 076°25'0 0.0
2018-Jan-05 11:29N 38°52' W 076°25'0 0.0
2018-Jan-05 10:59N 38°52' W 076°25'0 0.0
2018-Jan-05 10:29N 38°52' W 076°25'0 0.1
2018-Jan-05 10:00N 38°52' W 076°25'0 0.0
2018-Jan-05 09:29N 38°52' W 076°25'0 0.0
2018-Jan-05 08:59N 38°51' W 076°25'0 0.0
2018-Jan-05 08:29N 38°51' W 076°25'0 0.0
2018-Jan-05 07:59N 38°51' W 076°25'0 0.0
2018-Jan-05 07:30N 38°51' W 076°25'0 0.0
2018-Jan-05 07:00N 38°51' W 076°25'0 0.0
2018-Jan-05 06:30N 38°51' W 076°25'0 0.0
2018-Jan-05 05:59N 38°51' W 076°25'0 0.0
2018-Jan-05 05:29N 38°51' W 076°25'0 0.0
2018-Jan-05 04:59N 38°51' W 076°25'0 0.0
2018-Jan-05 04:29N 38°51' W 076°25'0 0.1
2018-Jan-05 03:59N 38°51' W 076°25'0 0.0
2018-Jan-05 03:29N 38°51' W 076°25'0 0.0
2018-Jan-05 02:59N 38°51' W 076°25'0 0.0
2018-Jan-05 02:29N 38°51' W 076°25'0 0.1
2018-Jan-05 01:59N 38°52' W 076°25'0 0.2
2018-Jan-05 01:30N 38°52' W 076°25'4 7.3
2018-Jan-05 01:00N 38°55' W 076°24'612.4
2018-Jan-05 00:30N 39°01' W 076°22'612.5
2018-Jan-05 00:00N 39°07' W 076°24'611.7
2018-Jan-04 23:30N 39°12' W 076°29'4 8.9
2018-Jan-04 23:00N 39°13' W 076°34'0 0.7
2018-Jan-04 22:30N 39°13' W 076°35'0 0.0
2018-Jan-04 22:00N 39°13' W 076°35'0 0.0
2018-Jan-04 21:30N 39°13' W 076°35'0 0.0
2018-Jan-04 21:00N 39°13' W 076°35'0 0.0
2018-Jan-04 20:30N 39°13' W 076°35'0 0.0
2018-Jan-04 20:00N 39°13' W 076°35'0 0.0
2018-Jan-04 19:30N 39°13' W 076°35'0 0.0
2018-Jan-04 19:00N 39°13' W 076°35'0 0.0
2018-Jan-04 18:30N 39°13' W 076°35'0 0.0
2018-Jan-04 18:00N 39°13' W 076°35'0 0.0
2018-Jan-04 17:30N 39°13' W 076°35'0 0.0
2018-Jan-04 17:00N 39°13' W 076°35'0 0.0
2018-Jan-04 16:30N 39°13' W 076°35'0 0.0
2018-Jan-04 15:57N 39°13' W 076°35'0 0.0
2018-Jan-04 15:30N 39°13' W 076°35'0 0.0
2018-Jan-04 15:00N 39°13' W 076°35'0 0.0
2018-Jan-04 14:30N 39°13' W 076°35'0 0.0
2018-Jan-04 14:00N 39°13' W 076°35'0 0.0
2018-Jan-04 13:30N 39°13' W 076°35'0 0.0
2018-Jan-04 13:00N 39°13' W 076°35'0 0.0
2018-Jan-04 12:27N 39°13' W 076°35'0 0.0
2018-Jan-04 12:00N 39°13' W 076°35'0 0.0
2018-Jan-04 11:30N 39°13' W 076°35'0 0.0
2018-Jan-04 11:00N 39°13' W 076°35'0 0.0
2018-Jan-04 10:30N 39°13' W 076°35'0 0.0
2018-Jan-04 10:00N 39°13' W 076°35'0 0.0
2018-Jan-04 09:30N 39°13' W 076°35'0 0.0
2018-Jan-04 09:00N 39°13' W 076°35'0 0.0
2018-Jan-04 08:30N 39°13' W 076°35'0 0.0
2018-Jan-04 08:00N 39°13' W 076°35'0 0.0
2018-Jan-04 07:30N 39°13' W 076°35'0 0.0
2018-Jan-04 07:00N 39°13' W 076°35'0 0.0
2018-Jan-04 06:30N 39°13' W 076°35'0 0.0
2018-Jan-04 06:00N 39°13' W 076°35'0 0.0
2018-Jan-04 05:30N 39°13' W 076°35'0 0.0
2018-Jan-04 05:00N 39°13' W 076°35'0 0.0
2018-Jan-04 04:27N 39°13' W 076°35'0 0.0
2018-Jan-04 04:00N 39°13' W 076°35'0 0.0
2018-Jan-04 03:30N 39°13' W 076°35'0 0.0
2018-Jan-04 03:00N 39°13' W 076°35'0 0.0
2018-Jan-04 02:30N 39°13' W 076°35'0 0.0
2018-Jan-04 02:00N 39°13' W 076°35'0 0.0
2018-Jan-04 01:30N 39°13' W 076°35'0 0.0
2018-Jan-04 01:00N 39°13' W 076°35'0 0.0
2018-Jan-04 00:30N 39°13' W 076°35'0 0.0
2018-Jan-03 23:57N 39°13' W 076°35'0 0.0
2018-Jan-03 23:30N 39°13' W 076°35'0 0.0
2018-Jan-03 23:00N 39°13' W 076°35'0 0.0
2018-Jan-03 22:30N 39°13' W 076°35'0 0.0
2018-Jan-03 22:00N 39°13' W 076°35'0 0.0
2018-Jan-03 21:30N 39°13' W 076°35'0 0.0
2018-Jan-03 21:00N 39°13' W 076°35'0 0.0
2018-Jan-03 20:30N 39°13' W 076°35'0 0.0
2018-Jan-03 20:00N 39°13' W 076°35'0 0.0
2018-Jan-03 19:30N 39°13' W 076°35'0 0.0
2018-Jan-03 19:00N 39°13' W 076°35'0 0.0
2018-Jan-03 18:30N 39°13' W 076°35'0 0.0
2018-Jan-03 18:00N 39°13' W 076°35'0 0.0
2018-Jan-03 17:30N 39°13' W 076°35'0 0.0
2018-Jan-03 17:00N 39°13' W 076°35'0 0.0
2018-Jan-03 16:30N 39°13' W 076°35'0 0.0
2018-Jan-03 16:00N 39°13' W 076°35'0 0.0
2018-Jan-03 15:30N 39°13' W 076°35'0 0.0
2018-Jan-03 15:00N 39°13' W 076°35'0 0.0
2018-Jan-03 14:30N 39°13' W 076°35'0 0.0
2018-Jan-03 14:00N 39°13' W 076°35'0 0.0
2018-Jan-03 13:30N 39°13' W 076°35'0 0.0
2018-Jan-03 13:00N 39°13' W 076°35'0 0.0
2018-Jan-03 12:30N 39°13' W 076°35'0 0.0
2018-Jan-03 12:00N 39°13' W 076°35'0 0.0
2018-Jan-03 11:30N 39°13' W 076°35'0 0.0
2018-Jan-03 11:00N 39°13' W 076°35'0 0.0
2018-Jan-03 10:30N 39°13' W 076°35'0 0.0
2018-Jan-03 10:00N 39°13' W 076°35'0 0.0
2018-Jan-03 09:30N 39°13' W 076°35'0 0.0
2018-Jan-03 09:00N 39°13' W 076°35'0 0.0
2018-Jan-03 08:30N 39°13' W 076°35'0 0.0
2018-Jan-03 08:00N 39°13' W 076°35'0 0.0
2018-Jan-03 07:30N 39°13' W 076°35'0 0.0
2018-Jan-03 07:00N 39°13' W 076°35'0 0.0
2018-Jan-03 06:30N 39°13' W 076°35'0 0.0
2018-Jan-03 06:00N 39°13' W 076°35'0 0.0
2018-Jan-03 05:30N 39°13' W 076°35'0 0.0
2018-Jan-03 05:00N 39°13' W 076°35'0 0.0
2018-Jan-03 04:30N 39°13' W 076°35'0 0.0
2018-Jan-03 04:00N 39°13' W 076°35'0 0.0
2018-Jan-03 03:30N 39°13' W 076°35'0 0.0
2018-Jan-03 03:00N 39°13' W 076°35'0 0.0
2018-Jan-03 02:30N 39°13' W 076°35'0 0.0
2018-Jan-03 02:00N 39°13' W 076°35'0 0.0
2018-Jan-03 01:30N 39°13' W 076°35'0 0.0
2018-Jan-03 01:00N 39°13' W 076°35'0 0.0
2018-Jan-03 00:30N 39°13' W 076°35'0 0.0
2018-Jan-03 00:00N 39°13' W 076°35'0 0.0
2018-Jan-02 23:30N 39°13' W 076°35'0 0.0
2018-Jan-02 23:00N 39°13' W 076°35'0 0.0
2018-Jan-02 22:30N 39°13' W 076°35'0 0.0
2018-Jan-02 22:00N 39°13' W 076°35'0 0.0
2018-Jan-02 21:30N 39°13' W 076°35'0 0.0
2018-Jan-02 21:00N 39°13' W 076°35'0 0.0
2018-Jan-02 20:30N 39°13' W 076°35'0 0.0
2018-Jan-02 20:00N 39°13' W 076°35'0 0.0
2018-Jan-02 19:30N 39°13' W 076°35'0 0.0
2018-Jan-02 19:00N 39°13' W 076°35'0 0.0
2018-Jan-02 18:30N 39°13' W 076°35'0 0.0
2018-Jan-02 18:00N 39°13' W 076°35'0 0.0
2018-Jan-02 17:30N 39°13' W 076°35'0 0.0
2018-Jan-02 17:00N 39°13' W 076°35'0 0.0
2018-Jan-02 16:30N 39°13' W 076°35'0 0.0
2018-Jan-02 16:00N 39°13' W 076°35'0 0.0
2018-Jan-02 15:30N 39°13' W 076°35'0 0.0
2018-Jan-02 15:00N 39°13' W 076°35'0 0.0
2018-Jan-02 14:30N 39°13' W 076°35'0 0.0
2018-Jan-02 14:00N 39°13' W 076°35'0 0.0
2018-Jan-02 13:30N 39°13' W 076°35'0 0.0
2018-Jan-02 13:00N 39°13' W 076°35'0 0.0
2018-Jan-02 12:30N 39°13' W 076°35'0 0.0
2018-Jan-02 12:00N 39°13' W 076°35'0 0.0
2018-Jan-02 11:30N 39°13' W 076°35'0 0.0
2018-Jan-02 11:00N 39°13' W 076°35'0 0.0
2018-Jan-02 10:30N 39°13' W 076°35'0 0.0
2018-Jan-02 10:00N 39°13' W 076°35'0 0.0
2018-Jan-02 09:30N 39°13' W 076°35'0 0.0
2018-Jan-02 08:30N 39°13' W 076°35'0 0.0
2018-Jan-02 08:00N 39°13' W 076°35'0 0.0
2018-Jan-02 07:30N 39°13' W 076°35'0 0.0
2018-Jan-02 07:00N 39°13' W 076°35'0 0.0
2018-Jan-02 06:30N 39°13' W 076°35'0 0.0
2018-Jan-02 06:00N 39°13' W 076°35'0 0.0
2018-Jan-02 05:30N 39°13' W 076°35'0 0.0
2018-Jan-02 04:30N 39°13' W 076°35'0 0.0
2018-Jan-02 04:00N 39°13' W 076°35'0 0.0
2018-Jan-02 03:30N 39°13' W 076°35'0 0.0
2018-Jan-02 03:00N 39°13' W 076°35'0 0.0
2018-Jan-02 02:30N 39°13' W 076°35'0 0.0
2018-Jan-02 02:00N 39°13' W 076°35'0 0.0
2018-Jan-02 01:30N 39°13' W 076°35'0 0.0
2018-Jan-02 01:00N 39°13' W 076°35'0 0.0
2018-Jan-02 00:30N 39°13' W 076°35'0 0.0
2018-Jan-02 00:00N 39°13' W 076°35'0 0.0
2018-Jan-01 23:30N 39°13' W 076°35'0 0.0
2018-Jan-01 22:58N 39°13' W 076°35'0 0.0
2018-Jan-01 22:28N 39°13' W 076°35'0 0.0
2018-Jan-01 21:58N 39°13' W 076°35'0 0.0
2018-Jan-01 21:28N 39°13' W 076°35'0 0.0
2018-Jan-01 20:58N 39°13' W 076°35'0 0.0
2018-Jan-01 20:28N 39°13' W 076°35'0 0.0
2018-Jan-01 19:58N 39°13' W 076°35'0 0.0
2018-Jan-01 19:28N 39°13' W 076°35'0 0.0
2018-Jan-01 18:58N 39°13' W 076°35'0 0.0
2018-Jan-01 18:28N 39°13' W 076°35'0 0.0
2018-Jan-01 17:58N 39°13' W 076°35'0 0.0
2018-Jan-01 17:28N 39°13' W 076°35'0 0.0
2018-Jan-01 14:58N 39°13' W 076°35'0 0.0
2018-Jan-01 14:28N 39°13' W 076°35'0 0.0
2018-Jan-01 13:58N 39°13' W 076°35'0 0.0
2018-Jan-01 13:28N 39°13' W 076°35'0 0.0
2018-Jan-01 12:58N 39°13' W 076°35'0 0.0
2018-Jan-01 11:58N 39°13' W 076°35'0 0.0
2018-Jan-01 11:28N 39°13' W 076°35'0 0.0
2018-Jan-01 10:58N 39°13' W 076°35'0 0.0
2018-Jan-01 10:28N 39°13' W 076°35'0 0.0
2018-Jan-01 09:58N 39°13' W 076°35'0 0.0
2018-Jan-01 09:28N 39°13' W 076°35'0 0.0
2018-Jan-01 08:28N 39°13' W 076°35'0 0.0
2018-Jan-01 07:58N 39°13' W 076°35'0 0.0
2018-Jan-01 07:28N 39°13' W 076°35'0 0.0
2018-Jan-01 06:58N 39°13' W 076°35'0 0.0
2018-Jan-01 05:58N 39°13' W 076°35'0 0.0
2018-Jan-01 05:28N 39°13' W 076°35'0 0.0
2018-Jan-01 04:58N 39°13' W 076°35'0 0.0
2018-Jan-01 03:58N 39°13' W 076°35'0 0.0
2018-Jan-01 03:28N 39°13' W 076°35'0 0.0
2018-Jan-01 02:58N 39°13' W 076°35'0 0.0
2018-Jan-01 02:28N 39°13' W 076°35'0 0.0
2018-Jan-01 01:58N 39°13' W 076°35'0 0.0
2018-Jan-01 01:28N 39°13' W 076°35'0 0.0
2018-Jan-01 00:28N 39°13' W 076°35'0 0.0
2017-Dec-31 20:58N 39°13' W 076°35'0 0.0
2017-Dec-31 20:28N 39°13' W 076°35'0 0.0
2017-Dec-31 19:58N 39°13' W 076°35'0 0.0
2017-Dec-31 19:28N 39°13' W 076°35'0 0.0
2017-Dec-31 18:58N 39°13' W 076°35'0 0.0
2017-Dec-31 18:28N 39°13' W 076°35'0 0.0
2017-Dec-31 17:58N 39°13' W 076°35'0 0.0
2017-Dec-31 17:28N 39°13' W 076°35'0 0.0
2017-Dec-31 16:58N 39°13' W 076°35'0 0.0
2017-Dec-31 16:28N 39°13' W 076°35'0 0.0
2017-Dec-31 15:58N 39°13' W 076°35'0 0.0
2017-Dec-31 15:28N 39°13' W 076°35'0 0.0
2017-Dec-31 14:58N 39°13' W 076°35'0 0.0
2017-Dec-31 14:28N 39°13' W 076°35'0 0.0
2017-Dec-31 13:58N 39°13' W 076°35'0 0.0
2017-Dec-31 13:25N 39°13' W 076°35'0 0.0
2017-Dec-31 12:58N 39°13' W 076°35'  
Track history (hours):
 
Tides and Currents Weather Stations Pressure Air Temp Water Temp Dewpoint Dewpoint Depression Visibility Wind Speed Wind Dir Waves Ship Positions

Koutalianos

Last reported at 2018-Jan-10 12:46 UTC. Time now 2018-Jan-18 21:44 UTC.
Position N 37°14' W 076°05'.
Warning: this ship's position is 8 days out of date.

Length 230 m; draft 8.5 m.

Type: Cargo ship. MMSI: 636014865.

Date/timePositionNaut miles runAvg speedWind from/ knotsBaromVisibWave heightAir tempDewpointWater temp
2018-Jan-10 12:46N 37°14' W 076°05'0 0.0
2018-Jan-08 14:25N 37°14' W 076°05'0 0.1
2018-Jan-08 13:52N 37°14' W 076°05'0 0.0
2018-Jan-08 13:10N 37°14' W 076°05'  
2018-Jan-06 02:05N 37°55' W 076°11'210.8
2018-Jan-06 01:53N 37°57' W 076°11'4213.8
2018-Jan-05 22:50N 38°38' W 076°25'513.1
2018-Jan-05 22:27N 38°43' W 076°26'613.5
2018-Jan-05 22:00N 38°48' W 076°25'3 6.1
2018-Jan-05 21:29N 38°52' W 076°26'0 0.2
2018-Jan-05 20:59N 38°52' W 076°25'0 0.2
2018-Jan-05 20:29N 38°52' W 076°25'0 0.0
2018-Jan-05 19:59N 38°51' W 076°25'0 0.0
2018-Jan-05 19:30N 38°51' W 076°25'0 0.0
2018-Jan-05 18:59N 38°51' W 076°25'0 0.1
2018-Jan-05 18:29N 38°51' W 076°25'0 0.0
2018-Jan-05 18:00N 38°51' W 076°25'0 0.0
2018-Jan-05 17:30N 38°51' W 076°25'0 0.0
2018-Jan-05 16:59N 38°51' W 076°25'0 0.0
2018-Jan-05 16:29N 38°51' W 076°25'0 0.0
2018-Jan-05 15:59N 38°51' W 076°25'0 0.1
2018-Jan-05 15:29N 38°52' W 076°25'0 0.0
2018-Jan-05 15:00N 38°51' W 076°25'0 0.0
2018-Jan-05 14:29N 38°51' W 076°25'0 0.1
2018-Jan-05 13:59N 38°52' W 076°25'0 0.0
2018-Jan-05 13:29N 38°52' W 076°25'0 0.1
2018-Jan-05 12:59N 38°52' W 076°25'0 0.0
2018-Jan-05 12:29N 38°52' W 076°25'0 0.0
2018-Jan-05 12:00N 38°52' W 076°25'0 0.0
2018-Jan-05 11:29N 38°52' W 076°25'0 0.0
2018-Jan-05 10:59N 38°52' W 076°25'0 0.0
2018-Jan-05 10:29N 38°52' W 076°25'0 0.1
2018-Jan-05 10:00N 38°52' W 076°25'0 0.0
2018-Jan-05 09:29N 38°52' W 076°25'0 0.0
2018-Jan-05 08:59N 38°51' W 076°25'0 0.0
2018-Jan-05 08:29N 38°51' W 076°25'0 0.0
2018-Jan-05 07:59N 38°51' W 076°25'0 0.0
2018-Jan-05 07:30N 38°51' W 076°25'0 0.0
2018-Jan-05 07:00N 38°51' W 076°25'0 0.0
2018-Jan-05 06:30N 38°51' W 076°25'0 0.0
2018-Jan-05 05:59N 38°51' W 076°25'0 0.0
2018-Jan-05 05:29N 38°51' W 076°25'0 0.0
2018-Jan-05 04:59N 38°51' W 076°25'0 0.0
2018-Jan-05 04:29N 38°51' W 076°25'0 0.1
2018-Jan-05 03:59N 38°51' W 076°25'0 0.0
2018-Jan-05 03:29N 38°51' W 076°25'0 0.0
2018-Jan-05 02:59N 38°51' W 076°25'0 0.0
2018-Jan-05 02:29N 38°51' W 076°25'0 0.1
2018-Jan-05 01:59N 38°52' W 076°25'0 0.2
2018-Jan-05 01:30N 38°52' W 076°25'4 7.3
2018-Jan-05 01:00N 38°55' W 076°24'612.4
2018-Jan-05 00:30N 39°01' W 076°22'612.5
2018-Jan-05 00:00N 39°07' W 076°24'611.7
2018-Jan-04 23:30N 39°12' W 076°29'4 8.9
2018-Jan-04 23:00N 39°13' W 076°34'0 0.7
2018-Jan-04 22:30N 39°13' W 076°35'0 0.0
2018-Jan-04 22:00N 39°13' W 076°35'0 0.0
2018-Jan-04 21:30N 39°13' W 076°35'0 0.0
2018-Jan-04 21:00N 39°13' W 076°35'0 0.0
2018-Jan-04 20:30N 39°13' W 076°35'0 0.0
2018-Jan-04 20:00N 39°13' W 076°35'0 0.0
2018-Jan-04 19:30N 39°13' W 076°35'0 0.0
2018-Jan-04 19:00N 39°13' W 076°35'0 0.0
2018-Jan-04 18:30N 39°13' W 076°35'0 0.0
2018-Jan-04 18:00N 39°13' W 076°35'0 0.0
2018-Jan-04 17:30N 39°13' W 076°35'0 0.0
2018-Jan-04 17:00N 39°13' W 076°35'0 0.0
2018-Jan-04 16:30N 39°13' W 076°35'0 0.0
2018-Jan-04 15:57N 39°13' W 076°35'0 0.0
2018-Jan-04 15:30N 39°13' W 076°35'0 0.0
2018-Jan-04 15:00N 39°13' W 076°35'0 0.0
2018-Jan-04 14:30N 39°13' W 076°35'0 0.0
2018-Jan-04 14:00N 39°13' W 076°35'0 0.0
2018-Jan-04 13:30N 39°13' W 076°35'0 0.0
2018-Jan-04 13:00N 39°13' W 076°35'0 0.0
2018-Jan-04 12:27N 39°13' W 076°35'0 0.0
2018-Jan-04 12:00N 39°13' W 076°35'0 0.0
2018-Jan-04 11:30N 39°13' W 076°35'0 0.0
2018-Jan-04 11:00N 39°13' W 076°35'0 0.0
2018-Jan-04 10:30N 39°13' W 076°35'0 0.0
2018-Jan-04 10:00N 39°13' W 076°35'0 0.0
2018-Jan-04 09:30N 39°13' W 076°35'0 0.0
2018-Jan-04 09:00N 39°13' W 076°35'0 0.0
2018-Jan-04 08:30N 39°13' W 076°35'0 0.0
2018-Jan-04 08:00N 39°13' W 076°35'0 0.0
2018-Jan-04 07:30N 39°13' W 076°35'0 0.0
2018-Jan-04 07:00N 39°13' W 076°35'0 0.0
2018-Jan-04 06:30N 39°13' W 076°35'0 0.0
2018-Jan-04 06:00N 39°13' W 076°35'0 0.0
2018-Jan-04 05:30N 39°13' W 076°35'0 0.0
2018-Jan-04 05:00N 39°13' W 076°35'0 0.0
2018-Jan-04 04:27N 39°13' W 076°35'0 0.0
2018-Jan-04 04:00N 39°13' W 076°35'0 0.0
2018-Jan-04 03:30N 39°13' W 076°35'0 0.0
2018-Jan-04 03:00N 39°13' W 076°35'0 0.0
2018-Jan-04 02:30N 39°13' W 076°35'0 0.0
2018-Jan-04 02:00N 39°13' W 076°35'0 0.0
2018-Jan-04 01:30N 39°13' W 076°35'0 0.0
2018-Jan-04 01:00N 39°13' W 076°35'0 0.0
2018-Jan-04 00:30N 39°13' W 076°35'0 0.0
2018-Jan-03 23:57N 39°13' W 076°35'0 0.0
2018-Jan-03 23:30N 39°13' W 076°35'0 0.0
2018-Jan-03 23:00N 39°13' W 076°35'0 0.0
2018-Jan-03 22:30N 39°13' W 076°35'0 0.0
2018-Jan-03 22:00N 39°13' W 076°35'0 0.0
2018-Jan-03 21:30N 39°13' W 076°35'0 0.0
2018-Jan-03 21:00N 39°13' W 076°35'0 0.0
2018-Jan-03 20:30N 39°13' W 076°35'0 0.0
2018-Jan-03 20:00N 39°13' W 076°35'0 0.0
2018-Jan-03 19:30N 39°13' W 076°35'0 0.0
2018-Jan-03 19:00N 39°13' W 076°35'0 0.0
2018-Jan-03 18:30N 39°13' W 076°35'0 0.0
2018-Jan-03 18:00N 39°13' W 076°35'0 0.0
2018-Jan-03 17:30N 39°13' W 076°35'0 0.0
2018-Jan-03 17:00N 39°13' W 076°35'0 0.0
2018-Jan-03 16:30N 39°13' W 076°35'0 0.0
2018-Jan-03 16:00N 39°13' W 076°35'0 0.0
2018-Jan-03 15:30N 39°13' W 076°35'0 0.0
2018-Jan-03 15:00N 39°13' W 076°35'0 0.0
2018-Jan-03 14:30N 39°13' W 076°35'0 0.0
2018-Jan-03 14:00N 39°13' W 076°35'0 0.0
2018-Jan-03 13:30N 39°13' W 076°35'0 0.0
2018-Jan-03 13:00N 39°13' W 076°35'0 0.0
2018-Jan-03 12:30N 39°13' W 076°35'0 0.0
2018-Jan-03 12:00N 39°13' W 076°35'0 0.0
2018-Jan-03 11:30N 39°13' W 076°35'0 0.0
2018-Jan-03 11:00N 39°13' W 076°35'0 0.0
2018-Jan-03 10:30N 39°13' W 076°35'0 0.0
2018-Jan-03 10:00N 39°13' W 076°35'0 0.0
2018-Jan-03 09:30N 39°13' W 076°35'0 0.0
2018-Jan-03 09:00N 39°13' W 076°35'0 0.0
2018-Jan-03 08:30N 39°13' W 076°35'0 0.0
2018-Jan-03 08:00N 39°13' W 076°35'0 0.0
2018-Jan-03 07:30N 39°13' W 076°35'0 0.0
2018-Jan-03 07:00N 39°13' W 076°35'0 0.0
2018-Jan-03 06:30N 39°13' W 076°35'0 0.0
2018-Jan-03 06:00N 39°13' W 076°35'0 0.0
2018-Jan-03 05:30N 39°13' W 076°35'0 0.0
2018-Jan-03 05:00N 39°13' W 076°35'0 0.0
2018-Jan-03 04:30N 39°13' W 076°35'0 0.0
2018-Jan-03 04:00N 39°13' W 076°35'0 0.0
2018-Jan-03 03:30N 39°13' W 076°35'0 0.0
2018-Jan-03 03:00N 39°13' W 076°35'0 0.0
2018-Jan-03 02:30N 39°13' W 076°35'0 0.0
2018-Jan-03 02:00N 39°13' W 076°35'0 0.0
2018-Jan-03 01:30N 39°13' W 076°35'0 0.0
2018-Jan-03 01:00N 39°13' W 076°35'0 0.0
2018-Jan-03 00:30N 39°13' W 076°35'0 0.0
2018-Jan-03 00:00N 39°13' W 076°35'0 0.0
2018-Jan-02 23:30N 39°13' W 076°35'0 0.0
2018-Jan-02 23:00N 39°13' W 076°35'0 0.0
2018-Jan-02 22:30N 39°13' W 076°35'0 0.0
2018-Jan-02 22:00N 39°13' W 076°35'0 0.0
2018-Jan-02 21:30N 39°13' W 076°35'0 0.0
2018-Jan-02 21:00N 39°13' W 076°35'0 0.0
2018-Jan-02 20:30N 39°13' W 076°35'0 0.0
2018-Jan-02 20:00N 39°13' W 076°35'0 0.0
2018-Jan-02 19:30N 39°13' W 076°35'0 0.0
2018-Jan-02 19:00N 39°13' W 076°35'0 0.0
2018-Jan-02 18:30N 39°13' W 076°35'0 0.0
2018-Jan-02 18:00N 39°13' W 076°35'0 0.0
2018-Jan-02 17:30N 39°13' W 076°35'0 0.0
2018-Jan-02 17:00N 39°13' W 076°35'0 0.0
2018-Jan-02 16:30N 39°13' W 076°35'0 0.0
2018-Jan-02 16:00N 39°13' W 076°35'0 0.0
2018-Jan-02 15:30N 39°13' W 076°35'0 0.0
2018-Jan-02 15:00N 39°13' W 076°35'0 0.0
2018-Jan-02 14:30N 39°13' W 076°35'0 0.0
2018-Jan-02 14:00N 39°13' W 076°35'0 0.0
2018-Jan-02 13:30N 39°13' W 076°35'0 0.0
2018-Jan-02 13:00N 39°13' W 076°35'0 0.0
2018-Jan-02 12:30N 39°13' W 076°35'0 0.0
2018-Jan-02 12:00N 39°13' W 076°35'0 0.0
2018-Jan-02 11:30N 39°13' W 076°35'0 0.0
2018-Jan-02 11:00N 39°13' W 076°35'0 0.0
2018-Jan-02 10:30N 39°13' W 076°35'0 0.0
2018-Jan-02 10:00N 39°13' W 076°35'0 0.0
2018-Jan-02 09:30N 39°13' W 076°35'0 0.0
2018-Jan-02 08:30N 39°13' W 076°35'0 0.0
2018-Jan-02 08:00N 39°13' W 076°35'0 0.0
2018-Jan-02 07:30N 39°13' W 076°35'0 0.0
2018-Jan-02 07:00N 39°13' W 076°35'0 0.0
2018-Jan-02 06:30N 39°13' W 076°35'0 0.0
2018-Jan-02 06:00N 39°13' W 076°35'0 0.0
2018-Jan-02 05:30N 39°13' W 076°35'0 0.0
2018-Jan-02 04:30N 39°13' W 076°35'0 0.0
2018-Jan-02 04:00N 39°13' W 076°35'0 0.0
2018-Jan-02 03:30N 39°13' W 076°35'0 0.0
2018-Jan-02 03:00N 39°13' W 076°35'0 0.0
2018-Jan-02 02:30N 39°13' W 076°35'0 0.0
2018-Jan-02 02:00N 39°13' W 076°35'0 0.0
2018-Jan-02 01:30N 39°13' W 076°35'0 0.0
2018-Jan-02 01:00N 39°13' W 076°35'0 0.0
2018-Jan-02 00:30N 39°13' W 076°35'0 0.0
2018-Jan-02 00:00N 39°13' W 076°35'0 0.0
2018-Jan-01 23:30N 39°13' W 076°35'0 0.0
2018-Jan-01 22:58N 39°13' W 076°35'0 0.0
2018-Jan-01 22:28N 39°13' W 076°35'0 0.0
2018-Jan-01 21:58N 39°13' W 076°35'0 0.0
2018-Jan-01 21:28N 39°13' W 076°35'0 0.0
2018-Jan-01 20:58N 39°13' W 076°35'0 0.0
2018-Jan-01 20:28N 39°13' W 076°35'0 0.0
2018-Jan-01 19:58N 39°13' W 076°35'0 0.0
2018-Jan-01 19:28N 39°13' W 076°35'0 0.0
2018-Jan-01 18:58N 39°13' W 076°35'0 0.0
2018-Jan-01 18:28N 39°13' W 076°35'0 0.0
2018-Jan-01 17:58N 39°13' W 076°35'0 0.0
2018-Jan-01 17:28N 39°13' W 076°35'0 0.0
2018-Jan-01 14:58N 39°13' W 076°35'0 0.0
2018-Jan-01 14:28N 39°13' W 076°35'0 0.0
2018-Jan-01 13:58N 39°13' W 076°35'0 0.0
2018-Jan-01 13:28N 39°13' W 076°35'0 0.0
2018-Jan-01 12:58N 39°13' W 076°35'0 0.0
2018-Jan-01 11:58N 39°13' W 076°35'0 0.0
2018-Jan-01 11:28N 39°13' W 076°35'0 0.0
2018-Jan-01 10:58N 39°13' W 076°35'0 0.0
2018-Jan-01 10:28N 39°13' W 076°35'0 0.0
2018-Jan-01 09:58N 39°13' W 076°35'0 0.0
2018-Jan-01 09:28N 39°13' W 076°35'0 0.0
2018-Jan-01 08:28N 39°13' W 076°35'0 0.0
2018-Jan-01 07:58N 39°13' W 076°35'0 0.0
2018-Jan-01 07:28N 39°13' W 076°35'0 0.0
2018-Jan-01 06:58N 39°13' W 076°35'0 0.0
2018-Jan-01 05:58N 39°13' W 076°35'0 0.0
2018-Jan-01 05:28N 39°13' W 076°35'0 0.0
2018-Jan-01 04:58N 39°13' W 076°35'0 0.0
2018-Jan-01 03:58N 39°13' W 076°35'0 0.0
2018-Jan-01 03:28N 39°13' W 076°35'0 0.0
2018-Jan-01 02:58N 39°13' W 076°35'0 0.0
2018-Jan-01 02:28N 39°13' W 076°35'0 0.0
2018-Jan-01 01:58N 39°13' W 076°35'0 0.0
2018-Jan-01 01:28N 39°13' W 076°35'0 0.0
2018-Jan-01 00:28N 39°13' W 076°35'0 0.0
2017-Dec-31 20:58N 39°13' W 076°35'0 0.0
2017-Dec-31 20:28N 39°13' W 076°35'0 0.0
2017-Dec-31 19:58N 39°13' W 076°35'0 0.0
2017-Dec-31 19:28N 39°13' W 076°35'0 0.0
2017-Dec-31 18:58N 39°13' W 076°35'0 0.0
2017-Dec-31 18:28N 39°13' W 076°35'0 0.0
2017-Dec-31 17:58N 39°13' W 076°35'0 0.0
2017-Dec-31 17:28N 39°13' W 076°35'0 0.0
2017-Dec-31 16:58N 39°13' W 076°35'0 0.0
2017-Dec-31 16:28N 39°13' W 076°35'0 0.0
2017-Dec-31 15:58N 39°13' W 076°35'0 0.0
2017-Dec-31 15:28N 39°13' W 076°35'0 0.0
2017-Dec-31 14:58N 39°13' W 076°35'0 0.0
2017-Dec-31 14:28N 39°13' W 076°35'0 0.0
2017-Dec-31 13:58N 39°13' W 076°35'0 0.0
2017-Dec-31 13:25N 39°13' W 076°35'0 0.0
2017-Dec-31 12:58N 39°13' W 076°35'  

Dump ship's entire track history